sensor_id;sensor_type;location;lat;lon;timestamp;temperature;humidity
46283;DHT22;32017;43.700;11.820;2022-12-18T00:00:31;2.10;99.90
46283;DHT22;32017;43.700;11.820;2022-12-18T00:02:50;2.10;99.90
46283;DHT22;32017;43.700;11.820;2022-12-18T00:05:11;2.00;99.90
46283;DHT22;32017;43.700;11.820;2022-12-18T00:07:30;1.90;99.90
46283;DHT22;32017;43.700;11.820;2022-12-18T00:09:50;1.90;99.90
46283;DHT22;32017;43.700;11.820;2022-12-18T00:12:10;1.90;99.90
46283;DHT22;32017;43.700;11.820;2022-12-18T00:14:34;1.80;99.90
46283;DHT22;32017;43.700;11.820;2022-12-18T00:16:54;1.80;99.90
46283;DHT22;32017;43.700;11.820;2022-12-18T00:19:14;1.80;99.90
46283;DHT22;32017;43.700;11.820;2022-12-18T00:21:35;1.80;99.90
46283;DHT22;32017;43.700;11.820;2022-12-18T00:23:54;1.80;99.90
46283;DHT22;32017;43.700;11.820;2022-12-18T00:26:17;1.70;99.90
46283;DHT22;32017;43.700;11.820;2022-12-18T00:28:38;1.70;99.90
46283;DHT22;32017;43.700;11.820;2022-12-18T00:31:02;1.70;99.90
46283;DHT22;32017;43.700;11.820;2022-12-18T00:33:22;1.70;99.90
46283;DHT22;32017;43.700;11.820;2022-12-18T00:35:42;1.70;99.90
46283;DHT22;32017;43.700;11.820;2022-12-18T00:38:02;1.70;99.90
46283;DHT22;32017;43.700;11.820;2022-12-18T00:40:22;1.80;99.90
46283;DHT22;32017;43.700;11.820;2022-12-18T00:42:42;1.70;99.90
46283;DHT22;32017;43.700;11.820;2022-12-18T00:45:17;1.60;99.90
46283;DHT22;32017;43.700;11.820;2022-12-18T00:47:36;1.60;99.90
46283;DHT22;32017;43.700;11.820;2022-12-18T00:49:56;1.50;99.90
46283;DHT22;32017;43.700;11.820;2022-12-18T00:52:16;1.40;99.90
46283;DHT22;32017;43.700;11.820;2022-12-18T00:54:35;1.40;99.90
46283;DHT22;32017;43.700;11.820;2022-12-18T00:56:55;1.30;99.90
46283;DHT22;32017;43.700;11.820;2022-12-18T00:59:16;1.30;99.90
46283;DHT22;32017;43.700;11.820;2022-12-18T01:01:35;1.50;99.90
46283;DHT22;32017;43.700;11.820;2022-12-18T01:03:55;1.50;99.90
46283;DHT22;32017;43.700;11.820;2022-12-18T01:06:16;1.50;99.90
46283;DHT22;32017;43.700;11.820;2022-12-18T01:08:36;1.50;99.90
46283;DHT22;32017;43.700;11.820;2022-12-18T01:10:55;1.40;99.90
46283;DHT22;32017;43.700;11.820;2022-12-18T01:13:15;1.40;99.90
46283;DHT22;32017;43.700;11.820;2022-12-18T01:15:35;1.40;99.90
46283;DHT22;32017;43.700;11.820;2022-12-18T01:17:54;1.40;99.90
46283;DHT22;32017;43.700;11.820;2022-12-18T01:20:14;1.20;99.90
46283;DHT22;32017;43.700;11.820;2022-12-18T01:22:35;1.10;99.90
46283;DHT22;32017;43.700;11.820;2022-12-18T01:24:55;1.10;99.90
46283;DHT22;32017;43.700;11.820;2022-12-18T01:27:15;1.00;99.90
46283;DHT22;32017;43.700;11.820;2022-12-18T01:29:34;1.00;99.90
46283;DHT22;32017;43.700;11.820;2022-12-18T01:31:57;1.00;99.90
46283;DHT22;32017;43.700;11.820;2022-12-18T01:34:17;0.90;99.90
46283;DHT22;32017;43.700;11.820;2022-12-18T01:36:38;0.90;99.90
46283;DHT22;32017;43.700;11.820;2022-12-18T01:39:05;0.80;99.90
46283;DHT22;32017;43.700;11.820;2022-12-18T01:41:27;0.70;99.90
46283;DHT22;32017;43.700;11.820;2022-12-18T01:47:08;0.80;99.90
46283;DHT22;32017;43.700;11.820;2022-12-18T01:49:28;0.80;99.90
46283;DHT22;32017;43.700;11.820;2022-12-18T01:51:47;1.00;99.90
46283;DHT22;32017;43.700;11.820;2022-12-18T01:54:07;1.20;99.90
46283;DHT22;32017;43.700;11.820;2022-12-18T01:56:27;1.30;99.90
46283;DHT22;32017;43.700;11.820;2022-12-18T02:01:09;1.60;99.90
46283;DHT22;32017;43.700;11.820;2022-12-18T02:03:29;1.70;99.90
46283;DHT22;32017;43.700;11.820;2022-12-18T02:08:45;1.70;99.90
46283;DHT22;32017;43.700;11.820;2022-12-18T02:11:59;1.50;99.90
46283;DHT22;32017;43.700;11.820;2022-12-18T02:16:36;1.00;99.90
46283;DHT22;32017;43.700;11.820;2022-12-18T02:19:01;0.90;99.90
46283;DHT22;32017;43.700;11.820;2022-12-18T02:26:56;0.70;99.90
46283;DHT22;32017;43.700;11.820;2022-12-18T02:29:21;0.60;99.90
46283;DHT22;32017;43.700;11.820;2022-12-18T02:31:47;0.60;99.90
46283;DHT22;32017;43.700;11.820;2022-12-18T02:34:10;0.50;99.90
46283;DHT22;32017;43.700;11.820;2022-12-18T02:36:32;0.60;99.90
46283;DHT22;32017;43.700;11.820;2022-12-18T02:38:53;0.70;99.90
46283;DHT22;32017;43.700;11.820;2022-12-18T02:41:16;0.70;99.90
46283;DHT22;32017;43.700;11.820;2022-12-18T02:43:36;0.80;99.90
46283;DHT22;32017;43.700;11.820;2022-12-18T02:45:58;0.90;99.90
46283;DHT22;32017;43.700;11.820;2022-12-18T02:48:24;0.80;99.90
46283;DHT22;32017;43.700;11.820;2022-12-18T02:51:03;1.00;99.90
46283;DHT22;32017;43.700;11.820;2022-12-18T02:53:50;1.10;99.90
46283;DHT22;32017;43.700;11.820;2022-12-18T02:56:19;1.10;99.90
46283;DHT22;32017;43.700;11.820;2022-12-18T03:01:17;0.90;99.90
46283;DHT22;32017;43.700;11.820;2022-12-18T03:03:50;0.60;99.90
46283;DHT22;32017;43.700;11.820;2022-12-18T03:06:18;0.40;99.90
46283;DHT22;32017;43.700;11.820;2022-12-18T03:08:44;0.40;99.90
46283;DHT22;32017;43.700;11.820;2022-12-18T03:11:12;0.30;99.90
46283;DHT22;32017;43.700;11.820;2022-12-18T03:13:55;0.50;99.90
46283;DHT22;32017;43.700;11.820;2022-12-18T03:16:24;0.60;99.90
46283;DHT22;32017;43.700;11.820;2022-12-18T03:21:17;0.70;99.90
46283;DHT22;32017;43.700;11.820;2022-12-18T03:23:46;0.80;99.90
46283;DHT22;32017;43.700;11.820;2022-12-18T03:26:10;0.90;99.90
46283;DHT22;32017;43.700;11.820;2022-12-18T03:28:36;1.00;99.90
46283;DHT22;32017;43.700;11.820;2022-12-18T03:31:00;1.00;99.90
46283;DHT22;32017;43.700;11.820;2022-12-18T03:33:24;1.00;99.90
46283;DHT22;32017;43.700;11.820;2022-12-18T03:35:46;1.00;99.90
46283;DHT22;32017;43.700;11.820;2022-12-18T03:38:06;1.00;99.90
46283;DHT22;32017;43.700;11.820;2022-12-18T03:40:50;1.10;99.90
46283;DHT22;32017;43.700;11.820;2022-12-18T03:43:40;1.10;99.90
46283;DHT22;32017;43.700;11.820;2022-12-18T03:46:16;1.10;99.90
46283;DHT22;32017;43.700;11.820;2022-12-18T03:48:43;0.80;99.90
46283;DHT22;32017;43.700;11.820;2022-12-18T03:51:11;0.60;99.90
46283;DHT22;32017;43.700;11.820;2022-12-18T03:53:52;0.70;99.90
46283;DHT22;32017;43.700;11.820;2022-12-18T03:56:15;0.90;99.90
46283;DHT22;32017;43.700;11.820;2022-12-18T03:58:37;1.00;99.90
46283;DHT22;32017;43.700;11.820;2022-12-18T04:01:01;1.10;99.90
46283;DHT22;32017;43.700;11.820;2022-12-18T04:03:23;1.10;99.90
46283;DHT22;32017;43.700;11.820;2022-12-18T04:05:57;1.00;99.90
46283;DHT22;32017;43.700;11.820;2022-12-18T04:08:19;1.00;99.90
46283;DHT22;32017;43.700;11.820;2022-12-18T04:10:40;0.90;99.90
46283;DHT22;32017;43.700;11.820;2022-12-18T04:13:00;0.90;99.90
46283;DHT22;32017;43.700;11.820;2022-12-18T04:15:20;0.80;99.90
46283;DHT22;32017;43.700;11.820;2022-12-18T04:17:47;0.80;99.90
46283;DHT22;32017;43.700;11.820;2022-12-18T04:20:08;0.80;99.90
46283;DHT22;32017;43.700;11.820;2022-12-18T04:22:27;0.70;99.90
46283;DHT22;32017;43.700;11.820;2022-12-18T04:24:47;0.80;99.90
46283;DHT22;32017;43.700;11.820;2022-12-18T04:27:07;0.80;99.90
46283;DHT22;32017;43.700;11.820;2022-12-18T04:29:27;0.80;99.90
46283;DHT22;32017;43.700;11.820;2022-12-18T04:31:47;0.90;99.90
46283;DHT22;32017;43.700;11.820;2022-12-18T04:34:07;1.00;99.90
46283;DHT22;32017;43.700;11.820;2022-12-18T04:36:28;1.00;99.90
46283;DHT22;32017;43.700;11.820;2022-12-18T04:38:48;1.00;99.90
46283;DHT22;32017;43.700;11.820;2022-12-18T04:41:07;1.10;99.90
46283;DHT22;32017;43.700;11.820;2022-12-18T04:43:27;0.90;99.90
46283;DHT22;32017;43.700;11.820;2022-12-18T04:45:47;0.80;99.90
46283;DHT22;32017;43.700;11.820;2022-12-18T04:48:07;0.70;99.90
46283;DHT22;32017;43.700;11.820;2022-12-18T04:50:27;0.70;99.90
46283;DHT22;32017;43.700;11.820;2022-12-18T04:52:47;0.70;99.90
46283;DHT22;32017;43.700;11.820;2022-12-18T04:55:07;0.90;99.90
46283;DHT22;32017;43.700;11.820;2022-12-18T04:57:27;1.10;99.90
46283;DHT22;32017;43.700;11.820;2022-12-18T04:59:47;1.20;99.90
46283;DHT22;32017;43.700;11.820;2022-12-18T05:02:06;1.30;99.90
46283;DHT22;32017;43.700;11.820;2022-12-18T05:04:26;1.30;99.90
46283;DHT22;32017;43.700;11.820;2022-12-18T05:06:47;0.90;99.90
46283;DHT22;32017;43.700;11.820;2022-12-18T05:09:08;0.50;99.90
46283;DHT22;32017;43.700;11.820;2022-12-18T05:11:28;0.30;99.90
46283;DHT22;32017;43.700;11.820;2022-12-18T05:13:48;0.20;99.90
46283;DHT22;32017;43.700;11.820;2022-12-18T05:16:08;0.00;99.90
46283;DHT22;32017;43.700;11.820;2022-12-18T05:18:29;0.00;99.90
46283;DHT22;32017;43.700;11.820;2022-12-18T05:20:50;0.00;99.90
46283;DHT22;32017;43.700;11.820;2022-12-18T05:23:10;0.00;99.90
46283;DHT22;32017;43.700;11.820;2022-12-18T05:25:30;-0.10;99.90
46283;DHT22;32017;43.700;11.820;2022-12-18T05:27:50;0.00;99.90
46283;DHT22;32017;43.700;11.820;2022-12-18T05:30:11;0.00;99.90
46283;DHT22;32017;43.700;11.820;2022-12-18T05:32:31;0.10;99.90
46283;DHT22;32017;43.700;11.820;2022-12-18T05:34:51;0.30;99.90
46283;DHT22;32017;43.700;11.820;2022-12-18T05:37:11;0.40;99.90
46283;DHT22;32017;43.700;11.820;2022-12-18T05:39:32;0.50;99.90
46283;DHT22;32017;43.700;11.820;2022-12-18T05:41:52;0.50;99.90
46283;DHT22;32017;43.700;11.820;2022-12-18T05:44:12;0.40;99.90
46283;DHT22;32017;43.700;11.820;2022-12-18T05:46:33;0.50;99.90
46283;DHT22;32017;43.700;11.820;2022-12-18T05:48:53;0.80;99.90
46283;DHT22;32017;43.700;11.820;2022-12-18T05:51:15;0.60;99.90
46283;DHT22;32017;43.700;11.820;2022-12-18T05:53:37;0.50;99.90
46283;DHT22;32017;43.700;11.820;2022-12-18T05:56:00;0.40;99.90
46283;DHT22;32017;43.700;11.820;2022-12-18T05:58:20;0.20;99.90
46283;DHT22;32017;43.700;11.820;2022-12-18T06:00:45;0.00;99.90
46283;DHT22;32017;43.700;11.820;2022-12-18T06:03:05;-0.10;99.90
46283;DHT22;32017;43.700;11.820;2022-12-18T06:05:25;-0.20;99.90
46283;DHT22;32017;43.700;11.820;2022-12-18T06:07:45;-0.20;99.90
46283;DHT22;32017;43.700;11.820;2022-12-18T06:10:05;-0.10;99.90
46283;DHT22;32017;43.700;11.820;2022-12-18T06:12:25;0.20;99.90
46283;DHT22;32017;43.700;11.820;2022-12-18T06:14:45;0.40;99.90
46283;DHT22;32017;43.700;11.820;2022-12-18T06:17:06;0.50;99.90
46283;DHT22;32017;43.700;11.820;2022-12-18T06:19:25;0.70;99.90
46283;DHT22;32017;43.700;11.820;2022-12-18T06:21:46;0.80;99.90
46283;DHT22;32017;43.700;11.820;2022-12-18T06:24:06;1.00;99.90
46283;DHT22;32017;43.700;11.820;2022-12-18T06:26:26;1.10;99.90
46283;DHT22;32017;43.700;11.820;2022-12-18T06:28:47;1.20;99.90
46283;DHT22;32017;43.700;11.820;2022-12-18T06:31:07;1.30;99.90
46283;DHT22;32017;43.700;11.820;2022-12-18T06:33:28;1.20;99.90
46283;DHT22;32017;43.700;11.820;2022-12-18T06:35:49;1.50;99.90
46283;DHT22;32017;43.700;11.820;2022-12-18T06:38:09;1.50;99.90
46283;DHT22;32017;43.700;11.820;2022-12-18T06:40:30;1.40;99.90
46283;DHT22;32017;43.700;11.820;2022-12-18T06:42:50;1.40;99.90
46283;DHT22;32017;43.700;11.820;2022-12-18T06:45:10;1.20;99.90
46283;DHT22;32017;43.700;11.820;2022-12-18T06:47:31;1.20;99.90
46283;DHT22;32017;43.700;11.820;2022-12-18T06:49:51;1.10;99.90
46283;DHT22;32017;43.700;11.820;2022-12-18T06:52:10;1.10;99.90
46283;DHT22;32017;43.700;11.820;2022-12-18T06:54:30;1.00;99.90
46283;DHT22;32017;43.700;11.820;2022-12-18T06:56:50;0.90;99.90
46283;DHT22;32017;43.700;11.820;2022-12-18T06:59:10;1.00;99.90
46283;DHT22;32017;43.700;11.820;2022-12-18T07:01:30;0.90;99.90
46283;DHT22;32017;43.700;11.820;2022-12-18T07:03:54;0.90;99.90
46283;DHT22;32017;43.700;11.820;2022-12-18T07:06:17;0.80;99.90
46283;DHT22;32017;43.700;11.820;2022-12-18T07:08:37;0.70;99.90
46283;DHT22;32017;43.700;11.820;2022-12-18T07:10:57;0.70;99.90
46283;DHT22;32017;43.700;11.820;2022-12-18T07:13:17;0.60;99.90
46283;DHT22;32017;43.700;11.820;2022-12-18T07:15:37;0.50;99.90
46283;DHT22;32017;43.700;11.820;2022-12-18T07:17:57;0.50;99.90
46283;DHT22;32017;43.700;11.820;2022-12-18T07:20:17;0.50;99.90
46283;DHT22;32017;43.700;11.820;2022-12-18T07:22:36;0.60;99.90
46283;DHT22;32017;43.700;11.820;2022-12-18T07:24:56;0.60;99.90
46283;DHT22;32017;43.700;11.820;2022-12-18T07:27:16;0.70;99.90
46283;DHT22;32017;43.700;11.820;2022-12-18T07:29:36;0.80;99.90
46283;DHT22;32017;43.700;11.820;2022-12-18T07:31:57;1.10;99.90
46283;DHT22;32017;43.700;11.820;2022-12-18T07:34:17;1.30;99.90
46283;DHT22;32017;43.700;11.820;2022-12-18T07:36:37;1.40;99.90
46283;DHT22;32017;43.700;11.820;2022-12-18T07:38:57;1.40;99.90
46283;DHT22;32017;43.700;11.820;2022-12-18T07:41:17;1.50;99.90
46283;DHT22;32017;43.700;11.820;2022-12-18T07:43:38;1.50;99.90
46283;DHT22;32017;43.700;11.820;2022-12-18T07:46:01;1.60;99.90
46283;DHT22;32017;43.700;11.820;2022-12-18T07:48:21;1.70;99.90
46283;DHT22;32017;43.700;11.820;2022-12-18T07:50:41;1.80;99.90
46283;DHT22;32017;43.700;11.820;2022-12-18T07:53:01;1.90;99.90
46283;DHT22;32017;43.700;11.820;2022-12-18T07:55:24;2.00;99.90
46283;DHT22;32017;43.700;11.820;2022-12-18T07:57:44;2.00;99.90
46283;DHT22;32017;43.700;11.820;2022-12-18T08:00:18;1.90;99.90
46283;DHT22;32017;43.700;11.820;2022-12-18T08:02:38;1.90;99.90
46283;DHT22;32017;43.700;11.820;2022-12-18T08:04:58;1.90;99.90
46283;DHT22;32017;43.700;11.820;2022-12-18T08:07:18;2.00;99.90
46283;DHT22;32017;43.700;11.820;2022-12-18T08:09:37;2.10;99.90
46283;DHT22;32017;43.700;11.820;2022-12-18T08:11:57;2.10;99.90
46283;DHT22;32017;43.700;11.820;2022-12-18T08:14:17;2.20;99.90
46283;DHT22;32017;43.700;11.820;2022-12-18T08:16:37;2.10;99.90
46283;DHT22;32017;43.700;11.820;2022-12-18T08:18:57;2.10;99.90
46283;DHT22;32017;43.700;11.820;2022-12-18T08:21:22;2.20;99.90
46283;DHT22;32017;43.700;11.820;2022-12-18T08:23:43;2.20;99.90
46283;DHT22;32017;43.700;11.820;2022-12-18T08:26:03;2.20;99.90
46283;DHT22;32017;43.700;11.820;2022-12-18T08:28:23;2.30;99.90
46283;DHT22;32017;43.700;11.820;2022-12-18T08:30:43;2.30;99.90
46283;DHT22;32017;43.700;11.820;2022-12-18T08:33:03;2.40;99.90
46283;DHT22;32017;43.700;11.820;2022-12-18T08:35:23;2.40;99.90
46283;DHT22;32017;43.700;11.820;2022-12-18T08:37:43;2.40;99.90
46283;DHT22;32017;43.700;11.820;2022-12-18T08:40:03;2.40;99.90
46283;DHT22;32017;43.700;11.820;2022-12-18T08:42:23;2.50;99.90
46283;DHT22;32017;43.700;11.820;2022-12-18T08:45:01;2.60;99.90
46283;DHT22;32017;43.700;11.820;2022-12-18T08:47:21;2.60;99.90
46283;DHT22;32017;43.700;11.820;2022-12-18T08:49:41;2.70;99.90
46283;DHT22;32017;43.700;11.820;2022-12-18T08:52:01;2.80;99.90
46283;DHT22;32017;43.700;11.820;2022-12-18T08:54:22;2.90;99.90
46283;DHT22;32017;43.700;11.820;2022-12-18T08:56:43;2.90;99.90
46283;DHT22;32017;43.700;11.820;2022-12-18T08:59:03;3.00;99.90
46283;DHT22;32017;43.700;11.820;2022-12-18T09:01:24;3.00;99.90
46283;DHT22;32017;43.700;11.820;2022-12-18T09:03:44;3.10;99.90
46283;DHT22;32017;43.700;11.820;2022-12-18T09:06:05;3.10;99.90
46283;DHT22;32017;43.700;11.820;2022-12-18T09:08:25;3.10;99.90
46283;DHT22;32017;43.700;11.820;2022-12-18T09:10:49;3.10;99.90
46283;DHT22;32017;43.700;11.820;2022-12-18T09:13:10;3.20;99.90
46283;DHT22;32017;43.700;11.820;2022-12-18T09:15:30;3.30;99.90
46283;DHT22;32017;43.700;11.820;2022-12-18T09:17:50;3.40;99.90
46283;DHT22;32017;43.700;11.820;2022-12-18T09:20:12;3.50;99.90
46283;DHT22;32017;43.700;11.820;2022-12-18T09:22:32;3.70;99.90
46283;DHT22;32017;43.700;11.820;2022-12-18T09:24:52;3.70;99.90
46283;DHT22;32017;43.700;11.820;2022-12-18T09:27:12;4.00;99.90
46283;DHT22;32017;43.700;11.820;2022-12-18T09:29:32;4.00;99.90
46283;DHT22;32017;43.700;11.820;2022-12-18T09:31:52;4.10;99.90
46283;DHT22;32017;43.700;11.820;2022-12-18T09:34:12;4.20;99.90
46283;DHT22;32017;43.700;11.820;2022-12-18T09:36:32;4.30;99.90
46283;DHT22;32017;43.700;11.820;2022-12-18T09:38:52;4.40;99.90
46283;DHT22;32017;43.700;11.820;2022-12-18T09:44:23;4.70;99.90
46283;DHT22;32017;43.700;11.820;2022-12-18T09:46:47;4.80;99.90
46283;DHT22;32017;43.700;11.820;2022-12-18T09:49:14;4.90;99.90
46283;DHT22;32017;43.700;11.820;2022-12-18T09:51:45;5.00;99.90
46283;DHT22;32017;43.700;11.820;2022-12-18T09:54:12;5.10;99.90
46283;DHT22;32017;43.700;11.820;2022-12-18T09:56:40;5.20;99.90
46283;DHT22;32017;43.700;11.820;2022-12-18T09:59:01;5.40;99.90
46283;DHT22;32017;43.700;11.820;2022-12-18T10:01:22;5.50;99.90
46283;DHT22;32017;43.700;11.820;2022-12-18T10:03:43;5.60;99.90
46283;DHT22;32017;43.700;11.820;2022-12-18T10:11:43;6.10;99.90
46283;DHT22;32017;43.700;11.820;2022-12-18T10:14:25;6.20;99.90
46283;DHT22;32017;43.700;11.820;2022-12-18T10:17:39;6.40;99.90
46283;DHT22;32017;43.700;11.820;2022-12-18T10:19:53;6.40;99.90
46283;DHT22;32017;43.700;11.820;2022-12-18T10:22:38;6.60;99.90
46283;DHT22;32017;43.700;11.820;2022-12-18T10:25:26;6.70;99.90
46283;DHT22;32017;43.700;11.820;2022-12-18T10:27:50;6.90;99.90
46283;DHT22;32017;43.700;11.820;2022-12-18T10:30:18;7.00;99.90
46283;DHT22;32017;43.700;11.820;2022-12-18T10:32:38;7.10;99.90
46283;DHT22;32017;43.700;11.820;2022-12-18T10:34:58;7.20;99.90
46283;DHT22;32017;43.700;11.820;2022-12-18T10:37:22;7.30;99.90
46283;DHT22;32017;43.700;11.820;2022-12-18T10:39:42;7.40;99.90
46283;DHT22;32017;43.700;11.820;2022-12-18T10:42:18;7.50;99.90
46283;DHT22;32017;43.700;11.820;2022-12-18T10:44:38;7.70;99.90
46283;DHT22;32017;43.700;11.820;2022-12-18T10:47:04;7.70;99.90
46283;DHT22;32017;43.700;11.820;2022-12-18T10:49:35;7.90;99.90
46283;DHT22;32017;43.700;11.820;2022-12-18T10:52:20;8.00;99.90
46283;DHT22;32017;43.700;11.820;2022-12-18T10:54:57;8.10;99.90
46283;DHT22;32017;43.700;11.820;2022-12-18T10:59:54;8.30;99.90
46283;DHT22;32017;43.700;11.820;2022-12-18T11:02:36;8.50;99.90
46283;DHT22;32017;43.700;11.820;2022-12-18T11:04:57;8.60;99.90
46283;DHT22;32017;43.700;11.820;2022-12-18T11:07:18;8.70;99.90
46283;DHT22;32017;43.700;11.820;2022-12-18T11:09:39;9.10;99.90
46283;DHT22;32017;43.700;11.820;2022-12-18T11:12:06;9.30;99.90
46283;DHT22;32017;43.700;11.820;2022-12-18T11:14:48;9.10;99.90
46283;DHT22;32017;43.700;11.820;2022-12-18T11:17:22;9.00;99.90
46283;DHT22;32017;43.700;11.820;2022-12-18T11:19:56;9.20;99.90
46283;DHT22;32017;43.700;11.820;2022-12-18T11:22:21;9.30;99.90
46283;DHT22;32017;43.700;11.820;2022-12-18T11:24:42;9.40;99.90
46283;DHT22;32017;43.700;11.820;2022-12-18T11:27:04;9.80;99.90
46283;DHT22;32017;43.700;11.820;2022-12-18T11:29:36;9.90;99.90
46283;DHT22;32017;43.700;11.820;2022-12-18T11:34:55;10.10;99.90
46283;DHT22;32017;43.700;11.820;2022-12-18T11:37:18;10.10;99.90
46283;DHT22;32017;43.700;11.820;2022-12-18T11:39:49;10.30;99.90
46283;DHT22;32017;43.700;11.820;2022-12-18T11:42:16;10.40;99.90
46283;DHT22;32017;43.700;11.820;2022-12-18T11:44:42;10.50;99.90
46283;DHT22;32017;43.700;11.820;2022-12-18T11:50:01;10.60;99.90
46283;DHT22;32017;43.700;11.820;2022-12-18T11:52:39;10.60;99.90
46283;DHT22;32017;43.700;11.820;2022-12-18T11:55:00;10.70;99.90
46283;DHT22;32017;43.700;11.820;2022-12-18T12:00:18;11.30;99.90
46283;DHT22;32017;43.700;11.820;2022-12-18T12:11:13;11.90;99.90
46283;DHT22;32017;43.700;11.820;2022-12-18T12:16:25;11.50;99.90
46283;DHT22;32017;43.700;11.820;2022-12-18T12:19:27;11.80;99.90
46283;DHT22;32017;43.700;11.820;2022-12-18T12:27:19;11.70;99.90
46283;DHT22;32017;43.700;11.820;2022-12-18T12:32:34;11.90;99.90
46283;DHT22;32017;43.700;11.820;2022-12-18T12:38:05;11.50;99.90
46283;DHT22;32017;43.700;11.820;2022-12-18T12:40:29;11.40;99.90
46283;DHT22;32017;43.700;11.820;2022-12-18T12:48:47;11.50;99.90
46283;DHT22;32017;43.700;11.820;2022-12-18T12:51:26;11.30;99.90
46283;DHT22;32017;43.700;11.820;2022-12-18T12:53:48;11.40;99.90
46283;DHT22;32017;43.700;11.820;2022-12-18T12:56:11;11.70;99.90
46283;DHT22;32017;43.700;11.820;2022-12-18T12:58:34;11.90;99.90
46283;DHT22;32017;43.700;11.820;2022-12-18T13:01:08;11.90;99.90
46283;DHT22;32017;43.700;11.820;2022-12-18T13:06:46;12.30;99.90
46283;DHT22;32017;43.700;11.820;2022-12-18T13:09:09;12.00;99.90
46283;DHT22;32017;43.700;11.820;2022-12-18T13:11:46;11.90;99.90
46283;DHT22;32017;43.700;11.820;2022-12-18T13:14:38;11.60;99.90
46283;DHT22;32017;43.700;11.820;2022-12-18T13:17:16;11.40;99.90
46283;DHT22;32017;43.700;11.820;2022-12-18T13:19:37;11.10;99.90
46283;DHT22;32017;43.700;11.820;2022-12-18T13:21:57;11.30;99.90
46283;DHT22;32017;43.700;11.820;2022-12-18T13:24:35;11.70;99.90
46283;DHT22;32017;43.700;11.820;2022-12-18T13:26:56;12.10;99.90
46283;DHT22;32017;43.700;11.820;2022-12-18T13:29:45;11.90;99.90
46283;DHT22;32017;43.700;11.820;2022-12-18T13:32:25;11.50;99.90
46283;DHT22;32017;43.700;11.820;2022-12-18T13:34:45;11.40;99.90
46283;DHT22;32017;43.700;11.820;2022-12-18T13:37:43;11.50;99.90
46283;DHT22;32017;43.700;11.820;2022-12-18T13:41:14;11.70;99.90
46283;DHT22;32017;43.700;11.820;2022-12-18T13:45:41;11.40;99.90
46283;DHT22;32017;43.700;11.820;2022-12-18T13:48:03;11.20;99.90
46283;DHT22;32017;43.700;11.820;2022-12-18T13:50:24;10.90;99.90
46283;DHT22;32017;43.700;11.820;2022-12-18T13:52:52;10.70;99.90
46283;DHT22;32017;43.700;11.820;2022-12-18T13:55:18;10.60;99.90
46283;DHT22;32017;43.700;11.820;2022-12-18T13:57:39;10.60;99.90
46283;DHT22;32017;43.700;11.820;2022-12-18T14:00:32;10.50;99.90
46283;DHT22;32017;43.700;11.820;2022-12-18T14:02:52;10.30;99.90
46283;DHT22;32017;43.700;11.820;2022-12-18T14:05:33;10.30;99.90
46283;DHT22;32017;43.700;11.820;2022-12-18T14:08:01;10.20;99.90
46283;DHT22;32017;43.700;11.820;2022-12-18T14:10:22;10.00;99.90
46283;DHT22;32017;43.700;11.820;2022-12-18T14:13:06;10.00;99.90
46283;DHT22;32017;43.700;11.820;2022-12-18T14:15:39;9.80;99.90
46283;DHT22;32017;43.700;11.820;2022-12-18T14:20:21;9.60;99.90
46283;DHT22;32017;43.700;11.820;2022-12-18T14:22:46;9.50;99.90
46283;DHT22;32017;43.700;11.820;2022-12-18T14:27:37;9.30;99.90
46283;DHT22;32017;43.700;11.820;2022-12-18T14:29:57;9.20;99.90
46283;DHT22;32017;43.700;11.820;2022-12-18T14:32:19;9.10;99.90
46283;DHT22;32017;43.700;11.820;2022-12-18T14:34:40;9.00;99.90
46283;DHT22;32017;43.700;11.820;2022-12-18T14:37:00;9.00;99.90
46283;DHT22;32017;43.700;11.820;2022-12-18T14:39:20;8.90;99.90
46283;DHT22;32017;43.700;11.820;2022-12-18T14:41:40;8.80;99.90
46283;DHT22;32017;43.700;11.820;2022-12-18T14:44:05;8.70;99.90
46283;DHT22;32017;43.700;11.820;2022-12-18T14:46:35;8.70;99.90
46283;DHT22;32017;43.700;11.820;2022-12-18T14:48:56;8.60;99.90
46283;DHT22;32017;43.700;11.820;2022-12-18T14:51:20;8.50;99.90
46283;DHT22;32017;43.700;11.820;2022-12-18T14:53:46;8.50;99.90
46283;DHT22;32017;43.700;11.820;2022-12-18T14:58:34;8.30;99.90
46283;DHT22;32017;43.700;11.820;2022-12-18T15:00:54;8.20;99.90
46283;DHT22;32017;43.700;11.820;2022-12-18T15:03:19;8.10;99.90
46283;DHT22;32017;43.700;11.820;2022-12-18T15:05:41;8.10;99.90
46283;DHT22;32017;43.700;11.820;2022-12-18T15:08:01;8.00;99.90
46283;DHT22;32017;43.700;11.820;2022-12-18T15:10:24;8.00;99.90
46283;DHT22;32017;43.700;11.820;2022-12-18T15:18:16;7.70;99.90
46283;DHT22;32017;43.700;11.820;2022-12-18T15:20:56;7.70;99.90
46283;DHT22;32017;43.700;11.820;2022-12-18T15:26:38;7.60;99.90
46283;DHT22;32017;43.700;11.820;2022-12-18T15:28:58;7.60;99.90
46283;DHT22;32017;43.700;11.820;2022-12-18T15:36:16;7.50;99.90
46283;DHT22;32017;43.700;11.820;2022-12-18T15:38:50;7.50;99.90
46283;DHT22;32017;43.700;11.820;2022-12-18T15:44:55;7.30;99.90
46283;DHT22;32017;43.700;11.820;2022-12-18T15:47:14;7.30;99.90
46283;DHT22;32017;43.700;11.820;2022-12-18T15:49:34;7.30;99.90
46283;DHT22;32017;43.700;11.820;2022-12-18T15:51:58;7.30;99.90
46283;DHT22;32017;43.700;11.820;2022-12-18T15:54:18;7.20;99.90
46283;DHT22;32017;43.700;11.820;2022-12-18T15:56:58;7.20;99.90
46283;DHT22;32017;43.700;11.820;2022-12-18T15:59:37;7.10;99.90
46283;DHT22;32017;43.700;11.820;2022-12-18T16:01:56;7.00;99.90
46283;DHT22;32017;43.700;11.820;2022-12-18T16:04:19;7.00;99.90
46283;DHT22;32017;43.700;11.820;2022-12-18T16:06:40;7.00;99.90
46283;DHT22;32017;43.700;11.820;2022-12-18T16:09:20;7.00;99.90
46283;DHT22;32017;43.700;11.820;2022-12-18T16:11:45;6.80;99.90
46283;DHT22;32017;43.700;11.820;2022-12-18T16:14:33;6.80;99.90
46283;DHT22;32017;43.700;11.820;2022-12-18T16:16:55;6.70;99.90
46283;DHT22;32017;43.700;11.820;2022-12-18T16:19:16;6.70;99.90
46283;DHT22;32017;43.700;11.820;2022-12-18T16:21:36;6.80;99.90
46283;DHT22;32017;43.700;11.820;2022-12-18T16:23:56;6.70;99.90
46283;DHT22;32017;43.700;11.820;2022-12-18T16:26:16;6.70;99.90
46283;DHT22;32017;43.700;11.820;2022-12-18T16:28:36;6.70;99.90
46283;DHT22;32017;43.700;11.820;2022-12-18T16:30:56;6.70;99.90
46283;DHT22;32017;43.700;11.820;2022-12-18T16:33:16;6.60;99.90
46283;DHT22;32017;43.700;11.820;2022-12-18T16:35:36;6.50;99.90
46283;DHT22;32017;43.700;11.820;2022-12-18T16:37:56;6.50;99.90
46283;DHT22;32017;43.700;11.820;2022-12-18T16:40:17;6.50;99.90
46283;DHT22;32017;43.700;11.820;2022-12-18T16:42:38;6.50;99.90
46283;DHT22;32017;43.700;11.820;2022-12-18T16:44:58;6.40;99.90
46283;DHT22;32017;43.700;11.820;2022-12-18T16:47:18;6.30;99.90
46283;DHT22;32017;43.700;11.820;2022-12-18T16:49:39;6.20;99.90